Aérodrome :







RETROUVEZ-NOUS SUR...

 
LOGIN :

S'inscrire | Disclaimer

   EN    FR    IT 

 









Légende :    VFR   VFR Marginal   IFR   IFR Intensif   IFR Très Intensif
Visi : 
Plafond : 
>= 8 km
>= 3000ft
5 à 8 km
1000 à 3000 ft
1500m à 5 km
500 à 1000 ft
800 à 1500m
200 à 500 ft
< 800m
< 200 ft
Symboles :   Orages  Brouillard  Fortes neiges  Fortes précipitations  Vent > 20 kt






- Altitude de l'aérodrome : 160 ft
- Code IATA : YYG


CYYG - Charlottetown

DERNIER METAR :
  • 131600Z 27013G25KT 15SM -SHSN OVC016 M04/M08 A2963 RMK SC8 CVCTV EMBD SLP038

METARs EXPIRÉS :
  • 131500Z 25016G25KT 15SM OVC019 M05/M08 A2962 RMK SC8 SLP033

TAF TAF CYYG
Valide du 13 à 12h jusqu'au 14 à 00h UTC


131139Z 1312/1324 26015G25KT P6SM BKN025 OVC140
TEMPO 1312/1315 P6SM -SN OVC020
FM131500 26020G30KT P6SM -SHSN BKN025
TEMPO 1315/1324 3SM -SHSN OVC020 RMK NXT FCST BY 131800Z



MET'MAP, la Météo Aéronautique d'un coup d'oeil ! - Copyright ORBIFLY Décembre 2007 - Disclaimer

ORBIFLY MET'MAP TEAM :

Programmation & Développement : Alexandra Zaïnal
Conception & Développement : Baudouin d'Aumeries
Co-Programmation & Développement : Marc-Olivier Méhu
Soutien technique & logistique : Manuel Goepfert

Contact : metmap@orbifly.com




SOURCES & CREDITS :

   NOAA